Terminal Aerodrome Forecast
Issued by NWS

Home | Current Version | Previous Version | Text Only | Print | Product List | Glossary On
Versions: 1 2 3 4 5 6 7 8 9 10 11 12 13 14 15 16 17 18 19 20
000
FTUS43 KGLD 221720
TAFMCK
TAF
KMCK 221720Z 2218/2318 VRB04KT P6SM SCT015 SCT035
      TEMPO 2218/2221 BKN015
     FM230100 12004KT P6SM SCT040
     FM230600 16006KT P6SM SCT040 SCT270=

USA.gov is the U.S. government's official web portal to all federal, state and local government web resources and services.